Home   Weather   USA   Fargo   Past weeks
Flag for USA

Past Weather in Fargo, North Dakota, USA — Yesterday and Last 2 Weeks

Currently: 68 °F. Passing clouds. (Weather station: Hector International Airport, USA). See more current weather

Past Weather in Fargo — Graph

°F

Fargo Temperature Yesterday

Maximum temperature yesterday: 83 °F (at 2:53 pm)
Minimum temperature yesterday: 61 °F (at 2:53 am)
Average temperature yesterday: 74 °F

High & Low Weather Summary for the Past Weeks

 TemperatureHumidityPressure
High96 °F (Jul 23, 3:53 pm)94% (Jul 20, 5:53 am)30.24 "Hg (Jul 20, 5:53 am)
Low56 °F (Jul 29, 5:53 am)19% (Jul 24, 4:53 pm)29.72 "Hg (Jul 24, 12:53 am)
Average77 °F61%29.98 "Hg
* Reported Jul 16 12:53 am — Jul 31 12:53 am, Fargo. Weather by CustomWeather, © 2021

Note: Actual official high and low records may vary slightly from our data, if they occured in-between our weather recording intervals... More about our weather records

Fargo Weather History for the Previous 24 Hours

Scroll right to see more
 ConditionsComfort  
Time TempWeatherWind HumidityBarometerVisibility
12:53 am
Sat, Jul 31
69 °FHaze.12 mph76%30.01 "Hg3 mi
11:53 pm
Fri, Jul 30
70 °FClear.13 mph73%30.01 "Hg3 mi
10:53 pm72 °FPassing clouds.13 mph66%30.02 "Hg3 mi
9:53 pm73 °FOvercast.13 mph64%30.02 "Hg3 mi
9:23 pm74 °FOvercast.12 mph60%30.03 "Hg3 mi
9:14 pm74 °FOvercast.12 mph60%30.03 "Hg2 mi
8:53 pm75 °FOvercast.9 mph55%30.02 "Hg2 mi
8:30 pm76 °FPartly sunny.13 mph54%30.03 "Hg2 mi
8:00 pm77 °FHaze.13 mph50%30.03 "Hg2 mi
6:53 pm80 °FSunny.13 mph45%30.03 "Hg3 mi
6:35 pm80 °FSunny.13 mph45%30.05 "Hg3 mi
6:14 pm80 °FSunny.14 mph44%30.05 "Hg2 mi
5:53 pm81 °FSunny.14 mph42%30.04 "Hg3 mi
4:53 pm81 °FSunny.13 mph38%30.05 "Hg5 mi
3:53 pm82 °FHaze.16 mph38%30.06 "Hg3 mi
3:15 pm82 °FHaze.12 mph35%30.08 "Hg2 mi
2:53 pm83 °FSunny.15 mph37%30.08 "Hg3 mi
1:53 pm81 °FPartly sunny.8 mph39%30.09 "Hg4 mi
12:53 pm78 °FPartly sunny.10 mph43%30.11 "Hg3 mi
12:09 pm76 °FPartly sunny.10 mph50%30.13 "Hg2 mi
11:53 am76 °FOvercast.10 mph50%30.12 "Hg2 mi
11:02 am73 °FScattered clouds.8 mph57%30.13 "Hg2 mi
10:27 am71 °FHaze.7 mph59%30.13 "Hg2 mi
9:56 am71 °FHaze.8 mph59%30.14 "Hg2 mi
9:29 am70 °FHaze.9 mph59%30.14 "Hg2 mi
8:53 am69 °FScattered clouds.7 mph61%30.15 "Hg2 mi
7:53 am68 °FHaze.8 mph61%30.17 "Hg1 mi
6:53 am67 °FHaze.8 mph61%30.16 "Hg1 mi
6:30 am67 °FSunny.8 mph59%30.16 "Hg2 mi
4:53 am67 °FHaze.10 mph63%30.15 "Hg3 mi
2:53 am61 °FClear.5 mph78%30.14 "Hg9 mi
Weather by CustomWeather, © 2021

See weather overview